sensor_id;sensor_type;location;lat;lon;timestamp;P1;durP1;ratioP1;P2;durP2;ratioP2
21671;SDS011;10997;52.242;8.168;2023-02-28T00:00:45;13.90;;;8.02;;
21671;SDS011;10997;52.242;8.168;2023-02-28T00:05:46;15.45;;;8.45;;
21671;SDS011;10997;52.242;8.168;2023-02-28T00:10:46;14.27;;;8.30;;
21671;SDS011;10997;52.242;8.168;2023-02-28T00:15:47;15.18;;;9.10;;
21671;SDS011;10997;52.242;8.168;2023-02-28T00:20:47;20.02;;;10.43;;
21671;SDS011;10997;52.242;8.168;2023-02-28T00:25:48;14.50;;;9.20;;
21671;SDS011;10997;52.242;8.168;2023-02-28T00:30:49;15.07;;;8.90;;
21671;SDS011;10997;52.242;8.168;2023-02-28T00:35:50;15.77;;;8.73;;
21671;SDS011;10997;52.242;8.168;2023-02-28T00:40:51;12.98;;;7.80;;
21671;SDS011;10997;52.242;8.168;2023-02-28T00:45:51;15.38;;;7.57;;
21671;SDS011;10997;52.242;8.168;2023-02-28T00:50:52;12.18;;;7.43;;
21671;SDS011;10997;52.242;8.168;2023-02-28T00:55:53;12.20;;;7.40;;
21671;SDS011;10997;52.242;8.168;2023-02-28T01:00:54;13.93;;;7.43;;
21671;SDS011;10997;52.242;8.168;2023-02-28T01:05:55;11.50;;;6.78;;
21671;SDS011;10997;52.242;8.168;2023-02-28T01:10:55;12.13;;;6.93;;
21671;SDS011;10997;52.242;8.168;2023-02-28T01:15:57;10.93;;;6.38;;
21671;SDS011;10997;52.242;8.168;2023-02-28T01:20:57;11.45;;;6.57;;
21671;SDS011;10997;52.242;8.168;2023-02-28T01:26:03;10.57;;;7.10;;
21671;SDS011;10997;52.242;8.168;2023-02-28T01:31:05;9.40;;;6.40;;
21671;SDS011;10997;52.242;8.168;2023-02-28T01:36:07;12.32;;;6.68;;
21671;SDS011;10997;52.242;8.168;2023-02-28T01:41:15;9.68;;;6.32;;
21671;SDS011;10997;52.242;8.168;2023-02-28T01:46:17;8.27;;;5.85;;
21671;SDS011;10997;52.242;8.168;2023-02-28T01:51:29;10.07;;;6.38;;
21671;SDS011;10997;52.242;8.168;2023-02-28T01:56:37;10.25;;;6.70;;
21671;SDS011;10997;52.242;8.168;2023-02-28T02:01:37;10.57;;;6.28;;
21671;SDS011;10997;52.242;8.168;2023-02-28T02:06:40;10.68;;;6.50;;
21671;SDS011;10997;52.242;8.168;2023-02-28T02:11:44;8.65;;;6.03;;
21671;SDS011;10997;52.242;8.168;2023-02-28T02:16:58;11.23;;;6.43;;
21671;SDS011;10997;52.242;8.168;2023-02-28T02:43:20;10.23;;;6.07;;
21671;SDS011;10997;52.242;8.168;2023-02-28T02:48:27;9.57;;;5.53;;
21671;SDS011;10997;52.242;8.168;2023-02-28T02:53:32;9.30;;;5.60;;
21671;SDS011;10997;52.242;8.168;2023-02-28T02:58:39;9.45;;;5.20;;
21671;SDS011;10997;52.242;8.168;2023-02-28T03:03:42;9.57;;;6.00;;
21671;SDS011;10997;52.242;8.168;2023-02-28T03:08:44;14.68;;;6.20;;
21671;SDS011;10997;52.242;8.168;2023-02-28T03:19:19;11.50;;;5.95;;
21671;SDS011;10997;52.242;8.168;2023-02-28T03:24:24;9.40;;;5.80;;
21671;SDS011;10997;52.242;8.168;2023-02-28T03:29:50;10.13;;;5.70;;
21671;SDS011;10997;52.242;8.168;2023-02-28T03:40:15;13.25;;;7.38;;
21671;SDS011;10997;52.242;8.168;2023-02-28T03:50:27;14.02;;;7.30;;
21671;SDS011;10997;52.242;8.168;2023-02-28T03:55:37;12.27;;;6.70;;
21671;SDS011;10997;52.242;8.168;2023-02-28T04:00:49;8.52;;;6.03;;
21671;SDS011;10997;52.242;8.168;2023-02-28T04:05:55;8.98;;;5.30;;
21671;SDS011;10997;52.242;8.168;2023-02-28T04:11:00;9.63;;;6.20;;
21671;SDS011;10997;52.242;8.168;2023-02-28T04:16:12;7.60;;;5.20;;
21671;SDS011;10997;52.242;8.168;2023-02-28T04:21:13;10.00;;;5.97;;
21671;SDS011;10997;52.242;8.168;2023-02-28T04:26:14;9.73;;;5.38;;
21671;SDS011;10997;52.242;8.168;2023-02-28T04:31:14;8.80;;;5.00;;
21671;SDS011;10997;52.242;8.168;2023-02-28T04:36:15;7.10;;;4.65;;
21671;SDS011;10997;52.242;8.168;2023-02-28T04:41:18;9.07;;;5.53;;
21671;SDS011;10997;52.242;8.168;2023-02-28T04:46:19;9.07;;;5.75;;
21671;SDS011;10997;52.242;8.168;2023-02-28T04:51:20;8.45;;;5.20;;
21671;SDS011;10997;52.242;8.168;2023-02-28T04:56:21;7.90;;;4.88;;
21671;SDS011;10997;52.242;8.168;2023-02-28T05:01:29;6.88;;;4.78;;
21671;SDS011;10997;52.242;8.168;2023-02-28T05:06:32;8.02;;;5.10;;
21671;SDS011;10997;52.242;8.168;2023-02-28T05:11:34;8.48;;;5.38;;
21671;SDS011;10997;52.242;8.168;2023-02-28T05:16:35;9.00;;;5.53;;
21671;SDS011;10997;52.242;8.168;2023-02-28T05:21:39;16.67;;;6.13;;
21671;SDS011;10997;52.242;8.168;2023-02-28T05:26:49;10.13;;;5.75;;
21671;SDS011;10997;52.242;8.168;2023-02-28T05:31:51;10.88;;;6.20;;
21671;SDS011;10997;52.242;8.168;2023-02-28T05:36:52;11.57;;;6.90;;
21671;SDS011;10997;52.242;8.168;2023-02-28T05:41:52;15.35;;;8.98;;
21671;SDS011;10997;52.242;8.168;2023-02-28T05:46:53;21.30;;;10.75;;
21671;SDS011;10997;52.242;8.168;2023-02-28T05:51:53;18.63;;;10.50;;
21671;SDS011;10997;52.242;8.168;2023-02-28T05:56:54;13.45;;;8.43;;
21671;SDS011;10997;52.242;8.168;2023-02-28T06:01:54;14.10;;;8.50;;
21671;SDS011;10997;52.242;8.168;2023-02-28T06:06:55;12.73;;;7.78;;
21671;SDS011;10997;52.242;8.168;2023-02-28T06:12:00;13.50;;;7.80;;
21671;SDS011;10997;52.242;8.168;2023-02-28T06:17:03;13.85;;;7.85;;
21671;SDS011;10997;52.242;8.168;2023-02-28T06:22:04;13.43;;;8.18;;
21671;SDS011;10997;52.242;8.168;2023-02-28T06:27:04;13.88;;;8.52;;
21671;SDS011;10997;52.242;8.168;2023-02-28T06:32:05;12.77;;;8.48;;
21671;SDS011;10997;52.242;8.168;2023-02-28T06:37:06;13.13;;;8.43;;
21671;SDS011;10997;52.242;8.168;2023-02-28T06:42:06;18.63;;;9.65;;
21671;SDS011;10997;52.242;8.168;2023-02-28T06:47:10;14.32;;;8.50;;
21671;SDS011;10997;52.242;8.168;2023-02-28T06:52:10;13.57;;;8.65;;
21671;SDS011;10997;52.242;8.168;2023-02-28T06:57:11;14.63;;;8.35;;
21671;SDS011;10997;52.242;8.168;2023-02-28T07:02:11;17.23;;;9.45;;
21671;SDS011;10997;52.242;8.168;2023-02-28T07:07:12;14.43;;;9.50;;
21671;SDS011;10997;52.242;8.168;2023-02-28T07:12:12;16.40;;;10.32;;
21671;SDS011;10997;52.242;8.168;2023-02-28T07:17:13;22.45;;;12.35;;
21671;SDS011;10997;52.242;8.168;2023-02-28T07:22:14;21.58;;;11.70;;
21671;SDS011;10997;52.242;8.168;2023-02-28T07:27:14;20.27;;;11.45;;
21671;SDS011;10997;52.242;8.168;2023-02-28T07:32:23;14.98;;;9.43;;
21671;SDS011;10997;52.242;8.168;2023-02-28T07:37:24;14.52;;;9.57;;
21671;SDS011;10997;52.242;8.168;2023-02-28T07:42:25;16.67;;;9.25;;
21671;SDS011;10997;52.242;8.168;2023-02-28T07:47:25;18.13;;;9.63;;
21671;SDS011;10997;52.242;8.168;2023-02-28T07:58:16;11.30;;;9.05;;
21671;SDS011;10997;52.242;8.168;2023-02-28T08:03:17;18.98;;;11.18;;
21671;SDS011;10997;52.242;8.168;2023-02-28T08:08:19;28.00;;;16.15;;
21671;SDS011;10997;52.242;8.168;2023-02-28T08:13:19;21.77;;;13.90;;
21671;SDS011;10997;52.242;8.168;2023-02-28T08:18:20;21.08;;;11.73;;
21671;SDS011;10997;52.242;8.168;2023-02-28T08:23:21;15.15;;;10.40;;
21671;SDS011;10997;52.242;8.168;2023-02-28T08:28:22;17.15;;;10.82;;
21671;SDS011;10997;52.242;8.168;2023-02-28T08:33:24;17.25;;;11.10;;
21671;SDS011;10997;52.242;8.168;2023-02-28T08:38:25;15.48;;;10.55;;
21671;SDS011;10997;52.242;8.168;2023-02-28T08:43:25;18.48;;;9.05;;
21671;SDS011;10997;52.242;8.168;2023-02-28T08:48:26;13.60;;;9.68;;
21671;SDS011;10997;52.242;8.168;2023-02-28T08:53:29;12.30;;;8.98;;
21671;SDS011;10997;52.242;8.168;2023-02-28T08:58:30;14.23;;;8.23;;
21671;SDS011;10997;52.242;8.168;2023-02-28T09:03:31;12.35;;;7.85;;
21671;SDS011;10997;52.242;8.168;2023-02-28T09:08:32;9.10;;;6.80;;
21671;SDS011;10997;52.242;8.168;2023-02-28T09:13:33;12.30;;;7.03;;
21671;SDS011;10997;52.242;8.168;2023-02-28T09:18:34;8.82;;;6.20;;
21671;SDS011;10997;52.242;8.168;2023-02-28T09:23:37;12.70;;;6.45;;
21671;SDS011;10997;52.242;8.168;2023-02-28T09:28:40;10.00;;;6.70;;
21671;SDS011;10997;52.242;8.168;2023-02-28T09:33:41;10.88;;;6.68;;
21671;SDS011;10997;52.242;8.168;2023-02-28T09:38:42;10.32;;;6.15;;
21671;SDS011;10997;52.242;8.168;2023-02-28T09:43:45;8.05;;;5.75;;
21671;SDS011;10997;52.242;8.168;2023-02-28T09:48:51;8.25;;;5.55;;
21671;SDS011;10997;52.242;8.168;2023-02-28T09:53:53;5.40;;;4.28;;
21671;SDS011;10997;52.242;8.168;2023-02-28T10:09:35;3.67;;;2.70;;
21671;SDS011;10997;52.242;8.168;2023-02-28T10:14:36;3.20;;;2.53;;
21671;SDS011;10997;52.242;8.168;2023-02-28T10:24:51;3.67;;;1.52;;
21671;SDS011;10997;52.242;8.168;2023-02-28T10:29:54;1.70;;;1.20;;
21671;SDS011;10997;52.242;8.168;2023-02-28T10:34:59;3.50;;;1.30;;
21671;SDS011;10997;52.242;8.168;2023-02-28T10:40:00;2.75;;;1.45;;
21671;SDS011;10997;52.242;8.168;2023-02-28T10:45:14;7.50;;;4.25;;
21671;SDS011;10997;52.242;8.168;2023-02-28T10:55:26;3.60;;;1.50;;
21671;SDS011;10997;52.242;8.168;2023-02-28T11:00:31;1.85;;;1.27;;
21671;SDS011;10997;52.242;8.168;2023-02-28T11:05:35;2.40;;;1.55;;
21671;SDS011;10997;52.242;8.168;2023-02-28T11:10:36;2.92;;;1.50;;
21671;SDS011;10997;52.242;8.168;2023-02-28T11:15:37;3.08;;;1.58;;
21671;SDS011;10997;52.242;8.168;2023-02-28T11:20:38;2.92;;;1.90;;
21671;SDS011;10997;52.242;8.168;2023-02-28T11:25:39;3.22;;;1.88;;
21671;SDS011;10997;52.242;8.168;2023-02-28T11:30:47;3.58;;;2.10;;
21671;SDS011;10997;52.242;8.168;2023-02-28T11:36:22;3.20;;;2.05;;
21671;SDS011;10997;52.242;8.168;2023-02-28T11:46:57;4.03;;;2.65;;
21671;SDS011;10997;52.242;8.168;2023-02-28T12:02:43;4.10;;;2.10;;
21671;SDS011;10997;52.242;8.168;2023-02-28T12:23:22;3.88;;;2.10;;
21671;SDS011;10997;52.242;8.168;2023-02-28T12:28:52;4.57;;;2.33;;
21671;SDS011;10997;52.242;8.168;2023-02-28T12:33:59;4.68;;;2.20;;
21671;SDS011;10997;52.242;8.168;2023-02-28T12:39:12;3.22;;;2.42;;
21671;SDS011;10997;52.242;8.168;2023-02-28T12:44:39;3.20;;;2.70;;
21671;SDS011;10997;52.242;8.168;2023-02-28T12:54:54;4.30;;;2.75;;
21671;SDS011;10997;52.242;8.168;2023-02-28T13:00:21;4.78;;;2.35;;
21671;SDS011;10997;52.242;8.168;2023-02-28T13:10:44;4.45;;;2.55;;
21671;SDS011;10997;52.242;8.168;2023-02-28T13:21:00;3.90;;;2.90;;
21671;SDS011;10997;52.242;8.168;2023-02-28T13:26:01;5.60;;;2.67;;
21671;SDS011;10997;52.242;8.168;2023-02-28T13:31:04;4.20;;;2.47;;
21671;SDS011;10997;52.242;8.168;2023-02-28T13:41:37;5.32;;;2.40;;
21671;SDS011;10997;52.242;8.168;2023-02-28T13:51:49;3.38;;;2.17;;
21671;SDS011;10997;52.242;8.168;2023-02-28T13:57:20;3.47;;;2.10;;
21671;SDS011;10997;52.242;8.168;2023-02-28T14:02:34;3.35;;;2.00;;
21671;SDS011;10997;52.242;8.168;2023-02-28T14:07:52;5.20;;;1.92;;
21671;SDS011;10997;52.242;8.168;2023-02-28T14:13:03;2.85;;;2.05;;
21671;SDS011;10997;52.242;8.168;2023-02-28T14:28:46;4.85;;;2.72;;
21671;SDS011;10997;52.242;8.168;2023-02-28T14:34:12;3.90;;;2.53;;
21671;SDS011;10997;52.242;8.168;2023-02-28T14:39:24;6.60;;;2.78;;
21671;SDS011;10997;52.242;8.168;2023-02-28T14:44:27;4.38;;;2.97;;
21671;SDS011;10997;52.242;8.168;2023-02-28T14:49:28;3.60;;;2.95;;
21671;SDS011;10997;52.242;8.168;2023-02-28T14:54:31;3.13;;;2.80;;
21671;SDS011;10997;52.242;8.168;2023-02-28T14:59:33;5.50;;;3.45;;
21671;SDS011;10997;52.242;8.168;2023-02-28T15:04:35;4.13;;;2.90;;
21671;SDS011;10997;52.242;8.168;2023-02-28T15:09:35;3.95;;;2.83;;
21671;SDS011;10997;52.242;8.168;2023-02-28T15:14:36;3.60;;;2.97;;
21671;SDS011;10997;52.242;8.168;2023-02-28T15:19:39;6.00;;;3.00;;
21671;SDS011;10997;52.242;8.168;2023-02-28T15:24:43;4.30;;;3.10;;
21671;SDS011;10997;52.242;8.168;2023-02-28T15:29:51;4.72;;;3.10;;
21671;SDS011;10997;52.242;8.168;2023-02-28T15:34:56;4.35;;;2.90;;
21671;SDS011;10997;52.242;8.168;2023-02-28T15:40:44;4.78;;;3.10;;
21671;SDS011;10997;52.242;8.168;2023-02-28T15:45:39;3.65;;;2.80;;
21671;SDS011;10997;52.242;8.168;2023-02-28T15:56:25;4.97;;;2.78;;
21671;SDS011;10997;52.242;8.168;2023-02-28T16:01:32;4.80;;;2.60;;
21671;SDS011;10997;52.242;8.168;2023-02-28T16:11:35;4.47;;;2.50;;
21671;SDS011;10997;52.242;8.168;2023-02-28T16:16:45;4.28;;;2.38;;
21671;SDS011;10997;52.242;8.168;2023-02-28T16:21:48;5.10;;;2.47;;
21671;SDS011;10997;52.242;8.168;2023-02-28T16:26:50;7.63;;;2.92;;
21671;SDS011;10997;52.242;8.168;2023-02-28T16:31:56;5.07;;;2.85;;
21671;SDS011;10997;52.242;8.168;2023-02-28T16:36:57;3.78;;;2.58;;
21671;SDS011;10997;52.242;8.168;2023-02-28T16:41:58;5.57;;;2.20;;
21671;SDS011;10997;52.242;8.168;2023-02-28T16:46:59;7.68;;;3.42;;
21671;SDS011;10997;52.242;8.168;2023-02-28T16:52:01;7.38;;;4.40;;
21671;SDS011;10997;52.242;8.168;2023-02-28T16:57:01;26.02;;;11.90;;
21671;SDS011;10997;52.242;8.168;2023-02-28T17:02:07;9.52;;;5.05;;
21671;SDS011;10997;52.242;8.168;2023-02-28T17:07:12;6.45;;;3.58;;
21671;SDS011;10997;52.242;8.168;2023-02-28T17:12:15;13.30;;;7.97;;
21671;SDS011;10997;52.242;8.168;2023-02-28T17:17:20;9.88;;;6.20;;
21671;SDS011;10997;52.242;8.168;2023-02-28T17:22:21;8.73;;;4.90;;
21671;SDS011;10997;52.242;8.168;2023-02-28T17:27:22;6.82;;;4.22;;
21671;SDS011;10997;52.242;8.168;2023-02-28T17:32:22;9.73;;;4.57;;
21671;SDS011;10997;52.242;8.168;2023-02-28T17:37:23;6.57;;;3.67;;
21671;SDS011;10997;52.242;8.168;2023-02-28T17:42:24;6.20;;;4.40;;
21671;SDS011;10997;52.242;8.168;2023-02-28T17:47:24;6.90;;;4.10;;
21671;SDS011;10997;52.242;8.168;2023-02-28T17:52:25;8.80;;;5.38;;
21671;SDS011;10997;52.242;8.168;2023-02-28T17:57:26;10.57;;;6.93;;
21671;SDS011;10997;52.242;8.168;2023-02-28T18:02:26;10.48;;;7.45;;
21671;SDS011;10997;52.242;8.168;2023-02-28T18:07:27;15.38;;;9.13;;
21671;SDS011;10997;52.242;8.168;2023-02-28T18:12:27;13.93;;;8.75;;
21671;SDS011;10997;52.242;8.168;2023-02-28T18:17:28;11.05;;;5.90;;
21671;SDS011;10997;52.242;8.168;2023-02-28T18:22:29;22.08;;;11.40;;
21671;SDS011;10997;52.242;8.168;2023-02-28T18:27:30;17.42;;;9.02;;
21671;SDS011;10997;52.242;8.168;2023-02-28T18:32:30;11.57;;;7.13;;
21671;SDS011;10997;52.242;8.168;2023-02-28T18:37:31;14.63;;;8.30;;
21671;SDS011;10997;52.242;8.168;2023-02-28T18:42:32;21.02;;;12.75;;
21671;SDS011;10997;52.242;8.168;2023-02-28T18:47:33;20.52;;;11.85;;
21671;SDS011;10997;52.242;8.168;2023-02-28T18:52:34;18.92;;;10.80;;
21671;SDS011;10997;52.242;8.168;2023-02-28T18:57:34;13.00;;;7.32;;
21671;SDS011;10997;52.242;8.168;2023-02-28T19:02:35;13.52;;;8.77;;
21671;SDS011;10997;52.242;8.168;2023-02-28T19:07:36;15.27;;;9.95;;
21671;SDS011;10997;52.242;8.168;2023-02-28T19:12:37;16.10;;;9.13;;
21671;SDS011;10997;52.242;8.168;2023-02-28T19:17:38;16.38;;;10.25;;
21671;SDS011;10997;52.242;8.168;2023-02-28T19:22:39;14.98;;;9.52;;
21671;SDS011;10997;52.242;8.168;2023-02-28T19:27:40;14.57;;;9.43;;
21671;SDS011;10997;52.242;8.168;2023-02-28T19:32:49;17.38;;;9.25;;
21671;SDS011;10997;52.242;8.168;2023-02-28T19:37:50;14.32;;;9.38;;
21671;SDS011;10997;52.242;8.168;2023-02-28T19:42:51;17.13;;;11.18;;
21671;SDS011;10997;52.242;8.168;2023-02-28T19:47:52;18.17;;;10.95;;
21671;SDS011;10997;52.242;8.168;2023-02-28T19:58:46;18.83;;;11.02;;
21671;SDS011;10997;52.242;8.168;2023-02-28T20:03:47;14.63;;;10.43;;
21671;SDS011;10997;52.242;8.168;2023-02-28T20:08:49;13.43;;;10.00;;
21671;SDS011;10997;52.242;8.168;2023-02-28T20:13:53;21.45;;;14.77;;
21671;SDS011;10997;52.242;8.168;2023-02-28T20:18:56;20.35;;;12.43;;
21671;SDS011;10997;52.242;8.168;2023-02-28T20:23:56;19.67;;;12.52;;
21671;SDS011;10997;52.242;8.168;2023-02-28T20:28:57;18.02;;;12.23;;
21671;SDS011;10997;52.242;8.168;2023-02-28T20:33:58;21.70;;;13.43;;
21671;SDS011;10997;52.242;8.168;2023-02-28T20:38:58;21.25;;;13.82;;
21671;SDS011;10997;52.242;8.168;2023-02-28T20:43:59;20.92;;;12.90;;
21671;SDS011;10997;52.242;8.168;2023-02-28T20:49:02;23.45;;;12.63;;
21671;SDS011;10997;52.242;8.168;2023-02-28T20:54:03;24.48;;;14.95;;
21671;SDS011;10997;52.242;8.168;2023-02-28T20:59:05;26.25;;;16.23;;
21671;SDS011;10997;52.242;8.168;2023-02-28T21:04:05;31.10;;;17.60;;
21671;SDS011;10997;52.242;8.168;2023-02-28T21:09:07;28.50;;;16.27;;
21671;SDS011;10997;52.242;8.168;2023-02-28T21:14:12;22.90;;;13.70;;
21671;SDS011;10997;52.242;8.168;2023-02-28T21:19:14;27.50;;;16.00;;
21671;SDS011;10997;52.242;8.168;2023-02-28T21:24:16;47.42;;;23.77;;
21671;SDS011;10997;52.242;8.168;2023-02-28T21:29:18;58.05;;;29.13;;
21671;SDS011;10997;52.242;8.168;2023-02-28T21:34:18;57.25;;;30.10;;
21671;SDS011;10997;52.242;8.168;2023-02-28T21:39:20;60.40;;;31.48;;
21671;SDS011;10997;52.242;8.168;2023-02-28T21:44:24;49.05;;;24.73;;
21671;SDS011;10997;52.242;8.168;2023-02-28T21:49:27;45.03;;;24.33;;
21671;SDS011;10997;52.242;8.168;2023-02-28T21:54:28;48.05;;;24.27;;
21671;SDS011;10997;52.242;8.168;2023-02-28T21:59:28;42.95;;;22.55;;
21671;SDS011;10997;52.242;8.168;2023-02-28T22:04:29;50.22;;;25.27;;
21671;SDS011;10997;52.242;8.168;2023-02-28T22:09:30;41.92;;;22.65;;
21671;SDS011;10997;52.242;8.168;2023-02-28T22:14:31;46.13;;;23.45;;
21671;SDS011;10997;52.242;8.168;2023-02-28T22:19:32;43.25;;;23.27;;
21671;SDS011;10997;52.242;8.168;2023-02-28T22:24:34;42.78;;;21.45;;
21671;SDS011;10997;52.242;8.168;2023-02-28T22:29:35;38.92;;;21.35;;
21671;SDS011;10997;52.242;8.168;2023-02-28T22:34:36;34.22;;;19.88;;
21671;SDS011;10997;52.242;8.168;2023-02-28T22:39:36;32.78;;;19.55;;
21671;SDS011;10997;52.242;8.168;2023-02-28T22:44:37;34.78;;;18.50;;
21671;SDS011;10997;52.242;8.168;2023-02-28T22:49:39;30.25;;;17.65;;
21671;SDS011;10997;52.242;8.168;2023-02-28T22:54:40;26.25;;;15.00;;
21671;SDS011;10997;52.242;8.168;2023-02-28T22:59:41;24.73;;;14.82;;
21671;SDS011;10997;52.242;8.168;2023-02-28T23:04:41;23.90;;;13.85;;
21671;SDS011;10997;52.242;8.168;2023-02-28T23:09:42;20.80;;;12.30;;
21671;SDS011;10997;52.242;8.168;2023-02-28T23:14:42;22.38;;;14.23;;
21671;SDS011;10997;52.242;8.168;2023-02-28T23:19:43;22.25;;;13.55;;
21671;SDS011;10997;52.242;8.168;2023-02-28T23:24:44;20.23;;;11.48;;
21671;SDS011;10997;52.242;8.168;2023-02-28T23:29:44;18.35;;;10.95;;
21671;SDS011;10997;52.242;8.168;2023-02-28T23:34:45;18.23;;;10.85;;
21671;SDS011;10997;52.242;8.168;2023-02-28T23:39:45;16.05;;;10.02;;
21671;SDS011;10997;52.242;8.168;2023-02-28T23:44:46;16.58;;;9.60;;
21671;SDS011;10997;52.242;8.168;2023-02-28T23:49:47;18.00;;;9.50;;
21671;SDS011;10997;52.242;8.168;2023-02-28T23:54:47;19.63;;;11.63;;
21671;SDS011;10997;52.242;8.168;2023-02-28T23:59:48;15.55;;;10.02;;
